sensor_id;sensor_type;location;lat;lon;timestamp;temperature;humidity
30063;DHT22;16889;67.864;24.990;2023-04-15T00:00:57;-7.00;99.90
30063;DHT22;16889;67.864;24.990;2023-04-15T00:05:44;-6.90;99.90
30063;DHT22;16889;67.864;24.990;2023-04-15T00:10:30;-6.90;99.90
30063;DHT22;16889;67.864;24.990;2023-04-15T00:15:16;-6.80;99.90
30063;DHT22;16889;67.864;24.990;2023-04-15T00:20:02;-6.50;99.60
30063;DHT22;16889;67.864;24.990;2023-04-15T00:24:52;-6.30;97.90
30063;DHT22;16889;67.864;24.990;2023-04-15T00:29:38;-6.10;95.80
30063;DHT22;16889;67.864;24.990;2023-04-15T00:34:24;-5.80;94.40
30063;DHT22;16889;67.864;24.990;2023-04-15T00:39:10;-5.70;94.20
30063;DHT22;16889;67.864;24.990;2023-04-15T00:43:56;-5.60;93.00
30063;DHT22;16889;67.864;24.990;2023-04-15T00:48:42;-5.60;93.10
30063;DHT22;16889;67.864;24.990;2023-04-15T00:53:28;-5.70;94.60
30063;DHT22;16889;67.864;24.990;2023-04-15T00:58:15;-6.00;95.20
30063;DHT22;16889;67.864;24.990;2023-04-15T01:03:01;-6.20;98.60
30063;DHT22;16889;67.864;24.990;2023-04-15T01:07:47;-6.30;98.00
30063;DHT22;16889;67.864;24.990;2023-04-15T01:12:33;-6.50;98.30
30063;DHT22;16889;67.864;24.990;2023-04-15T01:17:20;-6.70;98.50
30063;DHT22;16889;67.864;24.990;2023-04-15T01:22:06;-6.90;99.80
30063;DHT22;16889;67.864;24.990;2023-04-15T01:26:52;-7.20;99.70
30063;DHT22;16889;67.864;24.990;2023-04-15T01:31:38;-7.70;99.90
30063;DHT22;16889;67.864;24.990;2023-04-15T01:36:24;-7.90;99.90
30063;DHT22;16889;67.864;24.990;2023-04-15T01:41:10;-8.00;99.90
30063;DHT22;16889;67.864;24.990;2023-04-15T01:45:58;-8.00;99.90
30063;DHT22;16889;67.864;24.990;2023-04-15T01:50:44;-8.20;99.90
30063;DHT22;16889;67.864;24.990;2023-04-15T01:55:31;-8.40;99.90
30063;DHT22;16889;67.864;24.990;2023-04-15T02:00:17;-8.50;99.90
30063;DHT22;16889;67.864;24.990;2023-04-15T02:05:03;-8.50;99.90
30063;DHT22;16889;67.864;24.990;2023-04-15T02:09:50;-8.70;99.90
30063;DHT22;16889;67.864;24.990;2023-04-15T02:14:35;-8.80;99.90
30063;DHT22;16889;67.864;24.990;2023-04-15T02:19:21;-8.90;99.90
30063;DHT22;16889;67.864;24.990;2023-04-15T02:24:07;-8.90;99.90
30063;DHT22;16889;67.864;24.990;2023-04-15T02:28:54;-8.90;99.90
30063;DHT22;16889;67.864;24.990;2023-04-15T02:33:40;-9.00;99.90
30063;DHT22;16889;67.864;24.990;2023-04-15T02:38:26;-8.90;99.90
30063;DHT22;16889;67.864;24.990;2023-04-15T02:43:12;-8.60;99.90
30063;DHT22;16889;67.864;24.990;2023-04-15T02:47:58;-8.40;99.90
30063;DHT22;16889;67.864;24.990;2023-04-15T02:52:46;-8.50;99.90
30063;DHT22;16889;67.864;24.990;2023-04-15T02:57:31;-8.50;99.90
30063;DHT22;16889;67.864;24.990;2023-04-15T03:02:17;-8.50;99.90
30063;DHT22;16889;67.864;24.990;2023-04-15T03:07:03;-8.40;99.90
30063;DHT22;16889;67.864;24.990;2023-04-15T03:11:50;-8.20;99.90
30063;DHT22;16889;67.864;24.990;2023-04-15T03:16:38;-7.80;99.90
30063;DHT22;16889;67.864;24.990;2023-04-15T03:21:24;-7.60;99.90
30063;DHT22;16889;67.864;24.990;2023-04-15T03:26:23;-7.50;99.90
30063;DHT22;16889;67.864;24.990;2023-04-15T03:31:10;-7.40;99.90
30063;DHT22;16889;67.864;24.990;2023-04-15T03:35:56;-7.30;99.70
30063;DHT22;16889;67.864;24.990;2023-04-15T03:40:42;-7.10;99.90
30063;DHT22;16889;67.864;24.990;2023-04-15T03:45:28;-6.80;99.60
30063;DHT22;16889;67.864;24.990;2023-04-15T03:50:15;-6.60;97.20
30063;DHT22;16889;67.864;24.990;2023-04-15T03:55:00;-6.50;95.90
30063;DHT22;16889;67.864;24.990;2023-04-15T03:59:46;-6.20;95.80
30063;DHT22;16889;67.864;24.990;2023-04-15T04:04:32;-6.00;96.70
30063;DHT22;16889;67.864;24.990;2023-04-15T04:09:18;-4.70;94.90
30063;DHT22;16889;67.864;24.990;2023-04-15T04:14:04;-3.00;90.20
30063;DHT22;16889;67.864;24.990;2023-04-15T04:18:50;-2.70;85.50
30063;DHT22;16889;67.864;24.990;2023-04-15T04:23:36;-3.00;82.80
30063;DHT22;16889;67.864;24.990;2023-04-15T04:28:22;-3.20;79.50
30063;DHT22;16889;67.864;24.990;2023-04-15T04:33:08;-3.50;84.70
30063;DHT22;16889;67.864;24.990;2023-04-15T04:37:54;-3.90;85.10
30063;DHT22;16889;67.864;24.990;2023-04-15T04:42:41;-3.90;83.60
30063;DHT22;16889;67.864;24.990;2023-04-15T04:47:27;-3.70;80.60
30063;DHT22;16889;67.864;24.990;2023-04-15T04:52:13;-3.40;79.00
30063;DHT22;16889;67.864;24.990;2023-04-15T04:56:58;-3.20;78.30
30063;DHT22;16889;67.864;24.990;2023-04-15T05:01:45;-2.70;79.80
30063;DHT22;16889;67.864;24.990;2023-04-15T05:06:31;-2.80;76.70
30063;DHT22;16889;67.864;24.990;2023-04-15T05:11:17;-2.90;77.20
30063;DHT22;16889;67.864;24.990;2023-04-15T05:16:04;-2.90;77.60
30063;DHT22;16889;67.864;24.990;2023-04-15T05:20:50;-2.80;76.80
30063;DHT22;16889;67.864;24.990;2023-04-15T05:25:36;-2.60;74.50
30063;DHT22;16889;67.864;24.990;2023-04-15T05:30:22;-2.40;73.00
30063;DHT22;16889;67.864;24.990;2023-04-15T05:35:08;-2.00;74.70
30063;DHT22;16889;67.864;24.990;2023-04-15T05:39:54;-1.90;78.10
30063;DHT22;16889;67.864;24.990;2023-04-15T05:44:41;-1.20;71.50
30063;DHT22;16889;67.864;24.990;2023-04-15T05:49:27;-0.70;70.30
30063;DHT22;16889;67.864;24.990;2023-04-15T05:54:13;0.30;69.10
30063;DHT22;16889;67.864;24.990;2023-04-15T05:58:59;2.20;60.60
30063;DHT22;16889;67.864;24.990;2023-04-15T06:03:46;4.10;56.50
30063;DHT22;16889;67.864;24.990;2023-04-15T06:08:33;5.90;51.90
30063;DHT22;16889;67.864;24.990;2023-04-15T06:13:19;6.10;48.60
30063;DHT22;16889;67.864;24.990;2023-04-15T06:18:05;5.80;48.30
30063;DHT22;16889;67.864;24.990;2023-04-15T06:22:51;6.70;46.10
30063;DHT22;16889;67.864;24.990;2023-04-15T06:27:37;7.30;44.40
30063;DHT22;16889;67.864;24.990;2023-04-15T06:32:23;6.70;43.00
30063;DHT22;16889;67.864;24.990;2023-04-15T06:37:09;6.50;45.50
30063;DHT22;16889;67.864;24.990;2023-04-15T06:42:00;5.80;46.00
30063;DHT22;16889;67.864;24.990;2023-04-15T06:46:46;5.50;48.00
30063;DHT22;16889;67.864;24.990;2023-04-15T06:51:34;5.80;46.30
30063;DHT22;16889;67.864;24.990;2023-04-15T06:56:20;6.40;47.70
30063;DHT22;16889;67.864;24.990;2023-04-15T07:01:06;8.80;43.10
30063;DHT22;16889;67.864;24.990;2023-04-15T07:05:52;13.00;35.50
30063;DHT22;16889;67.864;24.990;2023-04-15T07:10:39;15.90;30.50
30063;DHT22;16889;67.864;24.990;2023-04-15T07:15:25;15.00;28.20
30063;DHT22;16889;67.864;24.990;2023-04-15T07:20:11;15.90;30.00
30063;DHT22;16889;67.864;24.990;2023-04-15T07:24:57;17.20;28.40
30063;DHT22;16889;67.864;24.990;2023-04-15T07:29:43;19.10;26.90
30063;DHT22;16889;67.864;24.990;2023-04-15T07:34:29;19.90;25.60
30063;DHT22;16889;67.864;24.990;2023-04-15T07:39:15;19.40;26.60
30063;DHT22;16889;67.864;24.990;2023-04-15T07:44:01;17.70;25.50
30063;DHT22;16889;67.864;24.990;2023-04-15T07:48:47;14.30;28.50
30063;DHT22;16889;67.864;24.990;2023-04-15T07:53:33;11.30;30.90
30063;DHT22;16889;67.864;24.990;2023-04-15T07:58:19;8.60;37.10
30063;DHT22;16889;67.864;24.990;2023-04-15T08:03:05;7.70;38.10
30063;DHT22;16889;67.864;24.990;2023-04-15T08:07:52;7.30;37.00
30063;DHT22;16889;67.864;24.990;2023-04-15T08:12:38;7.50;38.30
30063;DHT22;16889;67.864;24.990;2023-04-15T08:17:24;9.40;36.20
30063;DHT22;16889;67.864;24.990;2023-04-15T08:22:10;11.40;34.00
30063;DHT22;16889;67.864;24.990;2023-04-15T08:26:56;14.10;30.10
30063;DHT22;16889;67.864;24.990;2023-04-15T08:31:43;14.90;30.00
30063;DHT22;16889;67.864;24.990;2023-04-15T08:36:30;12.70;31.10
30063;DHT22;16889;67.864;24.990;2023-04-15T08:41:26;11.80;33.00
30063;DHT22;16889;67.864;24.990;2023-04-15T08:46:20;10.30;36.40
30063;DHT22;16889;67.864;24.990;2023-04-15T08:51:06;8.80;35.70
30063;DHT22;16889;67.864;24.990;2023-04-15T08:55:56;7.80;40.50
30063;DHT22;16889;67.864;24.990;2023-04-15T09:00:43;7.80;40.00
30063;DHT22;16889;67.864;24.990;2023-04-15T09:05:32;7.40;41.70
30063;DHT22;16889;67.864;24.990;2023-04-15T09:10:18;7.30;41.10
30063;DHT22;16889;67.864;24.990;2023-04-15T09:15:04;6.90;40.50
30063;DHT22;16889;67.864;24.990;2023-04-15T09:20:07;6.70;41.40
30063;DHT22;16889;67.864;24.990;2023-04-15T09:24:53;6.90;41.00
30063;DHT22;16889;67.864;24.990;2023-04-15T09:29:40;7.10;43.80
30063;DHT22;16889;67.864;24.990;2023-04-15T09:34:36;6.80;42.50
30063;DHT22;16889;67.864;24.990;2023-04-15T09:39:22;6.80;44.90
30063;DHT22;16889;67.864;24.990;2023-04-15T09:44:24;7.40;42.80
30063;DHT22;16889;67.864;24.990;2023-04-15T09:49:11;7.20;43.50
30063;DHT22;16889;67.864;24.990;2023-04-15T09:53:58;7.20;44.90
30063;DHT22;16889;67.864;24.990;2023-04-15T09:58:44;7.00;44.50
30063;DHT22;16889;67.864;24.990;2023-04-15T10:03:33;8.10;40.10
30063;DHT22;16889;67.864;24.990;2023-04-15T10:08:27;9.80;39.50
30063;DHT22;16889;67.864;24.990;2023-04-15T10:13:16;10.30;37.90
30063;DHT22;16889;67.864;24.990;2023-04-15T10:18:04;12.30;36.50
30063;DHT22;16889;67.864;24.990;2023-04-15T10:22:52;12.80;32.30
30063;DHT22;16889;67.864;24.990;2023-04-15T10:27:39;12.90;32.80
30063;DHT22;16889;67.864;24.990;2023-04-15T10:32:26;13.90;33.40
30063;DHT22;16889;67.864;24.990;2023-04-15T10:37:18;12.50;30.60
30063;DHT22;16889;67.864;24.990;2023-04-15T10:42:10;14.20;33.00
30063;DHT22;16889;67.864;24.990;2023-04-15T10:46:57;13.70;29.70
30063;DHT22;16889;67.864;24.990;2023-04-15T10:51:52;14.30;32.30
30063;DHT22;16889;67.864;24.990;2023-04-15T10:56:41;14.00;32.40
30063;DHT22;16889;67.864;24.990;2023-04-15T11:02:01;12.70;32.10
30063;DHT22;16889;67.864;24.990;2023-04-15T11:07:04;12.50;34.30
30063;DHT22;16889;67.864;24.990;2023-04-15T11:12:07;13.60;33.20
30063;DHT22;16889;67.864;24.990;2023-04-15T11:16:54;12.20;34.00
30063;DHT22;16889;67.864;24.990;2023-04-15T11:21:40;11.40;35.60
30063;DHT22;16889;67.864;24.990;2023-04-15T11:26:26;10.40;34.80
30063;DHT22;16889;67.864;24.990;2023-04-15T11:31:17;9.80;37.30
30063;DHT22;16889;67.864;24.990;2023-04-15T11:36:04;8.60;39.40
30063;DHT22;16889;67.864;24.990;2023-04-15T11:40:50;8.20;43.60
30063;DHT22;16889;67.864;24.990;2023-04-15T11:45:52;8.40;42.00
30063;DHT22;16889;67.864;24.990;2023-04-15T11:50:39;8.30;38.90
30063;DHT22;16889;67.864;24.990;2023-04-15T11:55:26;8.40;42.90
30063;DHT22;16889;67.864;24.990;2023-04-15T12:00:12;8.30;40.10
30063;DHT22;16889;67.864;24.990;2023-04-15T12:05:05;8.10;43.60
30063;DHT22;16889;67.864;24.990;2023-04-15T12:09:55;8.00;39.40
30063;DHT22;16889;67.864;24.990;2023-04-15T12:14:42;8.00;39.80
30063;DHT22;16889;67.864;24.990;2023-04-15T12:19:36;8.30;41.70
30063;DHT22;16889;67.864;24.990;2023-04-15T12:24:22;8.90;38.80
30063;DHT22;16889;67.864;24.990;2023-04-15T12:29:10;9.00;40.00
30063;DHT22;16889;67.864;24.990;2023-04-15T12:33:59;9.00;39.90
30063;DHT22;16889;67.864;24.990;2023-04-15T12:38:45;9.60;39.40
30063;DHT22;16889;67.864;24.990;2023-04-15T12:43:31;9.80;38.10
30063;DHT22;16889;67.864;24.990;2023-04-15T12:48:17;9.70;38.60
30063;DHT22;16889;67.864;24.990;2023-04-15T12:53:03;9.90;37.80
30063;DHT22;16889;67.864;24.990;2023-04-15T12:57:49;9.90;39.10
30063;DHT22;16889;67.864;24.990;2023-04-15T13:02:35;10.10;40.20
30063;DHT22;16889;67.864;24.990;2023-04-15T13:07:21;9.60;36.60
30063;DHT22;16889;67.864;24.990;2023-04-15T13:12:07;9.20;40.20
30063;DHT22;16889;67.864;24.990;2023-04-15T13:16:54;9.00;40.70
30063;DHT22;16889;67.864;24.990;2023-04-15T13:21:40;8.50;39.20
30063;DHT22;16889;67.864;24.990;2023-04-15T13:26:26;8.40;43.40
30063;DHT22;16889;67.864;24.990;2023-04-15T13:31:12;8.40;39.40
30063;DHT22;16889;67.864;24.990;2023-04-15T13:35:58;8.60;41.90
30063;DHT22;16889;67.864;24.990;2023-04-15T13:40:44;8.70;41.00
30063;DHT22;16889;67.864;24.990;2023-04-15T13:45:31;9.00;39.90
30063;DHT22;16889;67.864;24.990;2023-04-15T13:50:17;9.00;42.10
30063;DHT22;16889;67.864;24.990;2023-04-15T13:55:03;9.00;42.50
30063;DHT22;16889;67.864;24.990;2023-04-15T13:59:49;8.70;38.70
30063;DHT22;16889;67.864;24.990;2023-04-15T14:04:35;8.40;41.80
30063;DHT22;16889;67.864;24.990;2023-04-15T14:09:21;8.40;42.30
30063;DHT22;16889;67.864;24.990;2023-04-15T14:14:08;8.30;41.90
30063;DHT22;16889;67.864;24.990;2023-04-15T14:18:54;8.20;43.30
30063;DHT22;16889;67.864;24.990;2023-04-15T14:23:40;8.20;41.70
30063;DHT22;16889;67.864;24.990;2023-04-15T14:28:26;8.10;40.90
30063;DHT22;16889;67.864;24.990;2023-04-15T14:33:12;8.00;40.20
30063;DHT22;16889;67.864;24.990;2023-04-15T14:37:58;7.90;40.30
30063;DHT22;16889;67.864;24.990;2023-04-15T14:42:44;7.80;44.20
30063;DHT22;16889;67.864;24.990;2023-04-15T14:47:30;7.70;43.40
30063;DHT22;16889;67.864;24.990;2023-04-15T14:52:16;7.60;40.20
30063;DHT22;16889;67.864;24.990;2023-04-15T14:57:02;7.70;43.40
30063;DHT22;16889;67.864;24.990;2023-04-15T15:01:48;7.80;42.50
30063;DHT22;16889;67.864;24.990;2023-04-15T15:06:34;7.70;41.90
30063;DHT22;16889;67.864;24.990;2023-04-15T15:11:21;7.70;41.70
30063;DHT22;16889;67.864;24.990;2023-04-15T15:16:06;7.60;40.90
30063;DHT22;16889;67.864;24.990;2023-04-15T15:20:53;7.40;40.80
30063;DHT22;16889;67.864;24.990;2023-04-15T15:25:39;7.30;44.10
30063;DHT22;16889;67.864;24.990;2023-04-15T15:30:25;7.00;40.80
30063;DHT22;16889;67.864;24.990;2023-04-15T15:35:11;6.80;42.20
30063;DHT22;16889;67.864;24.990;2023-04-15T15:39:57;6.80;43.80
30063;DHT22;16889;67.864;24.990;2023-04-15T15:44:43;6.70;41.70
30063;DHT22;16889;67.864;24.990;2023-04-15T15:49:29;6.70;41.80
30063;DHT22;16889;67.864;24.990;2023-04-15T15:54:16;6.60;43.80
30063;DHT22;16889;67.864;24.990;2023-04-15T15:59:02;6.60;42.00
30063;DHT22;16889;67.864;24.990;2023-04-15T16:03:48;6.40;43.40
30063;DHT22;16889;67.864;24.990;2023-04-15T16:08:34;6.10;46.00
30063;DHT22;16889;67.864;24.990;2023-04-15T16:13:20;6.10;44.30
30063;DHT22;16889;67.864;24.990;2023-04-15T16:18:07;6.00;43.00
30063;DHT22;16889;67.864;24.990;2023-04-15T16:22:54;6.10;45.20
30063;DHT22;16889;67.864;24.990;2023-04-15T16:27:41;6.00;45.20
30063;DHT22;16889;67.864;24.990;2023-04-15T16:32:28;5.80;45.60
30063;DHT22;16889;67.864;24.990;2023-04-15T16:37:14;5.60;46.70
30063;DHT22;16889;67.864;24.990;2023-04-15T16:42:01;5.40;46.60
30063;DHT22;16889;67.864;24.990;2023-04-15T16:46:48;5.30;46.60
30063;DHT22;16889;67.864;24.990;2023-04-15T16:51:34;5.20;46.00
30063;DHT22;16889;67.864;24.990;2023-04-15T16:56:20;5.00;45.70
30063;DHT22;16889;67.864;24.990;2023-04-15T17:01:07;4.90;45.50
30063;DHT22;16889;67.864;24.990;2023-04-15T17:05:53;4.90;45.70
30063;DHT22;16889;67.864;24.990;2023-04-15T17:10:39;4.80;47.80
30063;DHT22;16889;67.864;24.990;2023-04-15T17:15:25;4.70;46.20
30063;DHT22;16889;67.864;24.990;2023-04-15T17:20:12;4.50;45.80
30063;DHT22;16889;67.864;24.990;2023-04-15T17:24:58;4.40;47.70
30063;DHT22;16889;67.864;24.990;2023-04-15T17:29:44;4.10;47.60
30063;DHT22;16889;67.864;24.990;2023-04-15T17:34:31;3.80;45.20
30063;DHT22;16889;67.864;24.990;2023-04-15T17:39:17;3.60;46.70
30063;DHT22;16889;67.864;24.990;2023-04-15T17:44:05;3.50;53.90
30063;DHT22;16889;67.864;24.990;2023-04-15T17:48:51;3.30;54.80
30063;DHT22;16889;67.864;24.990;2023-04-15T17:53:37;3.00;53.90
30063;DHT22;16889;67.864;24.990;2023-04-15T17:58:23;2.70;52.50
30063;DHT22;16889;67.864;24.990;2023-04-15T18:03:10;2.40;52.60
30063;DHT22;16889;67.864;24.990;2023-04-15T18:07:56;2.10;51.10
30063;DHT22;16889;67.864;24.990;2023-04-15T18:12:42;1.70;52.20
30063;DHT22;16889;67.864;24.990;2023-04-15T18:17:28;1.50;55.70
30063;DHT22;16889;67.864;24.990;2023-04-15T18:22:14;1.50;60.60
30063;DHT22;16889;67.864;24.990;2023-04-15T18:27:01;1.10;58.90
30063;DHT22;16889;67.864;24.990;2023-04-15T18:31:47;1.00;58.10
30063;DHT22;16889;67.864;24.990;2023-04-15T18:36:33;0.90;60.80
30063;DHT22;16889;67.864;24.990;2023-04-15T18:41:19;0.70;65.80
30063;DHT22;16889;67.864;24.990;2023-04-15T18:46:06;0.50;56.90
30063;DHT22;16889;67.864;24.990;2023-04-15T18:50:56;0.30;54.90
30063;DHT22;16889;67.864;24.990;2023-04-15T18:55:43;0.20;62.20
30063;DHT22;16889;67.864;24.990;2023-04-15T19:00:31;0.00;67.80
30063;DHT22;16889;67.864;24.990;2023-04-15T19:05:18;-0.40;56.30
30063;DHT22;16889;67.864;24.990;2023-04-15T19:10:05;-0.60;57.40
30063;DHT22;16889;67.864;24.990;2023-04-15T19:14:51;-0.70;67.90
30063;DHT22;16889;67.864;24.990;2023-04-15T19:19:37;-1.00;72.00
30063;DHT22;16889;67.864;24.990;2023-04-15T19:24:23;-1.30;61.40
30063;DHT22;16889;67.864;24.990;2023-04-15T19:29:09;-1.20;60.20
30063;DHT22;16889;67.864;24.990;2023-04-15T19:33:55;-1.20;57.90
30063;DHT22;16889;67.864;24.990;2023-04-15T19:38:41;-1.40;66.00
30063;DHT22;16889;67.864;24.990;2023-04-15T19:43:27;-1.40;58.60
30063;DHT22;16889;67.864;24.990;2023-04-15T19:48:14;-1.40;56.70
30063;DHT22;16889;67.864;24.990;2023-04-15T19:53:01;-1.40;55.30
30063;DHT22;16889;67.864;24.990;2023-04-15T19:57:47;-1.40;75.50
30063;DHT22;16889;67.864;24.990;2023-04-15T20:02:33;-1.50;74.90
30063;DHT22;16889;67.864;24.990;2023-04-15T20:07:19;-1.60;80.20
30063;DHT22;16889;67.864;24.990;2023-04-15T20:12:05;-1.80;76.10
30063;DHT22;16889;67.864;24.990;2023-04-15T20:16:51;-2.10;74.60
30063;DHT22;16889;67.864;24.990;2023-04-15T20:21:37;-2.30;81.60
30063;DHT22;16889;67.864;24.990;2023-04-15T20:26:23;-2.50;83.50
30063;DHT22;16889;67.864;24.990;2023-04-15T20:31:09;-2.60;77.80
30063;DHT22;16889;67.864;24.990;2023-04-15T20:35:55;-2.80;77.80
30063;DHT22;16889;67.864;24.990;2023-04-15T20:40:41;-3.00;82.90
30063;DHT22;16889;67.864;24.990;2023-04-15T20:45:28;-3.20;89.20
30063;DHT22;16889;67.864;24.990;2023-04-15T20:50:14;-3.20;91.90
30063;DHT22;16889;67.864;24.990;2023-04-15T20:55:00;-3.40;96.90
30063;DHT22;16889;67.864;24.990;2023-04-15T20:59:46;-3.70;94.90
30063;DHT22;16889;67.864;24.990;2023-04-15T21:04:32;-3.90;97.80
30063;DHT22;16889;67.864;24.990;2023-04-15T21:09:18;-4.00;99.90
30063;DHT22;16889;67.864;24.990;2023-04-15T21:14:07;-4.00;99.90
30063;DHT22;16889;67.864;24.990;2023-04-15T21:18:53;-4.00;99.90
30063;DHT22;16889;67.864;24.990;2023-04-15T21:23:39;-4.10;99.90
30063;DHT22;16889;67.864;24.990;2023-04-15T21:28:26;-4.30;97.90
30063;DHT22;16889;67.864;24.990;2023-04-15T21:33:13;-4.20;93.70
30063;DHT22;16889;67.864;24.990;2023-04-15T21:37:59;-4.00;92.10
30063;DHT22;16889;67.864;24.990;2023-04-15T21:42:45;-3.90;94.00
30063;DHT22;16889;67.864;24.990;2023-04-15T21:47:33;-3.80;91.30
30063;DHT22;16889;67.864;24.990;2023-04-15T21:52:19;-3.60;91.70
30063;DHT22;16889;67.864;24.990;2023-04-15T21:57:05;-3.50;91.80
30063;DHT22;16889;67.864;24.990;2023-04-15T22:01:51;-3.60;90.50
30063;DHT22;16889;67.864;24.990;2023-04-15T22:06:37;-3.80;86.80
30063;DHT22;16889;67.864;24.990;2023-04-15T22:11:23;-3.70;84.70
30063;DHT22;16889;67.864;24.990;2023-04-15T22:16:12;-3.80;88.90
30063;DHT22;16889;67.864;24.990;2023-04-15T22:20:58;-4.00;93.10
30063;DHT22;16889;67.864;24.990;2023-04-15T22:25:45;-4.20;97.20
30063;DHT22;16889;67.864;24.990;2023-04-15T22:30:36;-4.40;99.80
30063;DHT22;16889;67.864;24.990;2023-04-15T22:35:22;-4.70;99.90
30063;DHT22;16889;67.864;24.990;2023-04-15T22:40:08;-5.30;97.60
30063;DHT22;16889;67.864;24.990;2023-04-15T22:44:55;-5.70;99.90
30063;DHT22;16889;67.864;24.990;2023-04-15T22:49:41;-5.60;99.90
30063;DHT22;16889;67.864;24.990;2023-04-15T22:54:27;-5.60;99.90
30063;DHT22;16889;67.864;24.990;2023-04-15T22:59:13;-5.60;99.90
30063;DHT22;16889;67.864;24.990;2023-04-15T23:03:59;-5.70;99.90
30063;DHT22;16889;67.864;24.990;2023-04-15T23:08:45;-5.80;99.90
30063;DHT22;16889;67.864;24.990;2023-04-15T23:13:33;-6.30;99.90
30063;DHT22;16889;67.864;24.990;2023-04-15T23:18:19;-6.30;99.90
30063;DHT22;16889;67.864;24.990;2023-04-15T23:23:05;-6.60;99.90
30063;DHT22;16889;67.864;24.990;2023-04-15T23:27:51;-6.60;99.90
30063;DHT22;16889;67.864;24.990;2023-04-15T23:32:37;-6.80;99.90
30063;DHT22;16889;67.864;24.990;2023-04-15T23:37:23;-6.80;99.90
30063;DHT22;16889;67.864;24.990;2023-04-15T23:42:09;-6.80;99.90
30063;DHT22;16889;67.864;24.990;2023-04-15T23:46:56;-6.90;99.90
30063;DHT22;16889;67.864;24.990;2023-04-15T23:51:41;-7.00;99.90
30063;DHT22;16889;67.864;24.990;2023-04-15T23:56:27;-7.10;99.90
